createdAt,value
2022-10-01T00:01:46.136Z,100.00
2022-10-01T00:04:15.303Z,100.00
2022-10-01T00:06:44.941Z,100.00
2022-10-01T00:09:11.834Z,100.00
2022-10-01T00:11:38.482Z,100.00
2022-10-01T00:14:08.409Z,100.00
2022-10-01T00:16:34.988Z,100.00
2022-10-01T00:19:01.750Z,100.00
2022-10-01T00:21:34.199Z,100.00
2022-10-01T00:24:08.361Z,100.00
2022-10-01T00:26:37.813Z,100.00
2022-10-01T00:29:14.591Z,100.00
2022-10-01T00:31:45.790Z,100.00
2022-10-01T00:34:15.492Z,100.00
2022-10-01T00:36:44.280Z,100.00
2022-10-01T00:39:13.753Z,100.00
2022-10-01T00:41:41.268Z,100.00
2022-10-01T00:44:34.113Z,100.00
2022-10-01T00:47:12.565Z,100.00
2022-10-01T00:49:41.027Z,100.00
2022-10-01T00:52:13.924Z,100.00
2022-10-01T00:54:43.389Z,100.00
2022-10-01T00:57:14.211Z,100.00
2022-10-01T00:59:40.963Z,100.00
2022-10-01T01:02:07.536Z,100.00
2022-10-01T01:04:34.132Z,100.00
2022-10-01T01:07:03.944Z,100.00
2022-10-01T01:09:44.569Z,100.00
2022-10-01T01:12:22.170Z,100.00
2022-10-01T01:14:54.430Z,100.00
2022-10-01T01:17:29.955Z,100.00
2022-10-01T01:20:14.551Z,100.00
2022-10-01T01:22:50.598Z,100.00
2022-10-01T01:25:25.307Z,100.00
2022-10-01T01:28:24.200Z,100.00
2022-10-01T01:30:57.012Z,100.00
2022-10-01T01:33:28.308Z,100.00
2022-10-01T01:36:00.343Z,100.00
2022-10-01T01:38:33.219Z,100.00
2022-10-01T01:41:03.845Z,100.00
2022-10-01T01:43:35.649Z,100.00
2022-10-01T01:46:08.711Z,100.00
2022-10-01T01:48:38.879Z,100.00
2022-10-01T01:51:19.250Z,100.00
2022-10-01T01:53:46.153Z,100.00
2022-10-01T01:56:18.182Z,100.00
2022-10-01T01:58:51.113Z,100.00
2022-10-01T02:01:39.220Z,100.00
2022-10-01T02:04:26.357Z,100.00
2022-10-01T02:06:53.613Z,100.00
2022-10-01T02:09:28.358Z,100.00
2022-10-01T02:12:24.405Z,100.00
2022-10-01T02:15:02.713Z,100.00
2022-10-01T02:17:40.478Z,100.00
2022-10-01T02:20:15.616Z,100.00
2022-10-01T02:23:06.893Z,100.00
2022-10-01T02:25:40.351Z,100.00
2022-10-01T02:28:11.435Z,100.00
2022-10-01T02:30:40.114Z,100.00
2022-10-01T02:33:10.187Z,100.00
2022-10-01T02:35:40.012Z,100.00
2022-10-01T02:38:11.637Z,100.00
2022-10-01T02:40:43.897Z,100.00
2022-10-01T02:43:21.278Z,100.00
2022-10-01T02:45:56.614Z,100.00
2022-10-01T02:48:23.743Z,100.00
2022-10-01T02:50:54.503Z,100.00
2022-10-01T02:53:29.277Z,100.00
2022-10-01T02:55:59.852Z,100.00
2022-10-01T02:58:28.979Z,100.00
2022-10-01T03:00:57.736Z,100.00
2022-10-01T03:03:26.488Z,100.00
2022-10-01T03:05:53.469Z,100.00
2022-10-01T03:08:20.411Z,100.00
2022-10-01T03:10:47.082Z,100.00
2022-10-01T03:13:18.959Z,100.00
2022-10-01T03:15:50.937Z,100.00
2022-10-01T03:18:17.696Z,100.00
2022-10-01T03:20:47.587Z,100.00
2022-10-01T03:23:14.158Z,100.00
2022-10-01T03:25:40.669Z,100.00
2022-10-01T03:28:09.513Z,100.00
2022-10-01T03:30:36.154Z,100.00
2022-10-01T03:33:04.801Z,100.00
2022-10-01T03:35:32.261Z,100.00
2022-10-01T03:37:59.036Z,100.00
2022-10-01T03:40:25.599Z,100.00
2022-10-01T03:42:52.165Z,100.00
2022-10-01T03:45:18.743Z,100.00
2022-10-01T03:47:51.865Z,100.00
2022-10-01T03:50:21.971Z,100.00
2022-10-01T03:52:50.732Z,100.00
2022-10-01T03:55:17.353Z,100.00
2022-10-01T03:57:43.947Z,100.00
2022-10-01T04:00:14.097Z,100.00
2022-10-01T04:02:40.751Z,100.00
2022-10-01T04:05:10.264Z,100.00
2022-10-01T04:07:42.537Z,100.00
2022-10-01T04:10:09.550Z,100.00
2022-10-01T04:12:36.081Z,100.00
2022-10-01T04:15:05.719Z,100.00
2022-10-01T04:17:36.157Z,100.00
2022-10-01T04:20:02.743Z,100.00
2022-10-01T04:22:31.389Z,100.00
2022-10-01T04:24:57.890Z,100.00
2022-10-01T04:27:24.456Z,100.00
2022-10-01T04:29:50.997Z,100.00
2022-10-01T04:32:19.943Z,100.00
2022-10-01T04:34:52.822Z,100.00
2022-10-01T04:37:23.028Z,100.00
2022-10-01T04:39:50.105Z,100.00
2022-10-01T04:42:19.170Z,100.00
2022-10-01T04:44:45.703Z,100.00
2022-10-01T04:47:14.719Z,100.00
2022-10-01T04:49:43.504Z,100.00
2022-10-01T04:52:12.791Z,100.00
2022-10-01T04:54:39.317Z,100.00
2022-10-01T04:57:09.214Z,100.00
2022-10-01T04:59:38.377Z,100.00
2022-10-01T05:02:07.359Z,100.00
2022-10-01T05:04:34.290Z,100.00
2022-10-01T05:07:00.809Z,100.00
2022-10-01T05:09:29.900Z,100.00
2022-10-01T05:11:56.454Z,100.00
2022-10-01T05:14:23.084Z,100.00
2022-10-01T05:16:51.665Z,100.00
2022-10-01T05:19:18.551Z,100.00
2022-10-01T05:21:47.334Z,100.00
2022-10-01T05:24:16.199Z,100.00
2022-10-01T05:26:45.305Z,100.00
2022-10-01T05:29:11.810Z,100.00
2022-10-01T05:31:44.366Z,100.00
2022-10-01T05:34:11.134Z,100.00
2022-10-01T05:36:37.830Z,100.00
2022-10-01T05:39:04.647Z,100.00
2022-10-01T05:41:31.198Z,100.00
2022-10-01T05:43:57.894Z,100.00
2022-10-01T05:46:24.561Z,100.00
2022-10-01T05:48:51.486Z,100.00
2022-10-01T05:51:18.918Z,100.00
2022-10-01T05:53:50.525Z,100.00
2022-10-01T05:56:19.746Z,100.00
2022-10-01T05:58:46.812Z,100.00
2022-10-01T06:01:15.892Z,100.00
2022-10-01T06:03:44.886Z,100.00
2022-10-01T06:06:14.441Z,100.00
2022-10-01T06:08:46.829Z,100.00
2022-10-01T06:11:13.758Z,100.00
2022-10-01T06:13:45.187Z,100.00
2022-10-01T06:16:13.295Z,100.00
2022-10-01T06:18:40.785Z,100.00
2022-10-01T06:21:08.385Z,100.00
2022-10-01T06:23:36.187Z,100.00
2022-10-01T06:26:05.666Z,100.00
2022-10-01T06:28:34.806Z,100.00
2022-10-01T06:31:05.851Z,100.00
2022-10-01T06:33:32.581Z,100.00
2022-10-01T06:36:03.539Z,100.00
2022-10-01T06:38:31.145Z,100.00
2022-10-01T06:41:01.983Z,100.00
2022-10-01T06:43:30.422Z,100.00
2022-10-01T06:46:00.588Z,100.00
2022-10-01T06:48:31.793Z,100.00
2022-10-01T06:51:01.602Z,100.00
2022-10-01T06:53:31.945Z,100.00
2022-10-01T06:56:04.891Z,100.00
2022-10-01T06:58:37.487Z,100.00
2022-10-01T07:01:04.168Z,100.00
2022-10-01T07:03:31.330Z,100.00
2022-10-01T07:06:02.929Z,100.00
2022-10-01T07:08:29.735Z,100.00
2022-10-01T07:11:05.015Z,100.00
2022-10-01T07:13:31.584Z,100.00
2022-10-01T07:15:58.483Z,100.00
2022-10-01T07:18:25.315Z,100.00
2022-10-01T07:20:56.639Z,100.00
2022-10-01T07:23:24.502Z,100.00
2022-10-01T07:25:53.519Z,100.00
2022-10-01T07:28:23.943Z,100.00
2022-10-01T07:30:58.410Z,100.00
2022-10-01T07:33:29.849Z,100.00
2022-10-01T07:35:59.619Z,100.00
2022-10-01T07:38:26.503Z,100.00
2022-10-01T07:40:54.713Z,100.00
2022-10-01T07:43:22.218Z,100.00
2022-10-01T07:45:52.547Z,100.00
2022-10-01T07:48:19.414Z,100.00
2022-10-01T07:50:49.649Z,100.00
2022-10-01T07:53:19.644Z,100.00
2022-10-01T07:55:49.003Z,100.00
2022-10-01T07:58:15.977Z,100.00
2022-10-01T08:00:43.571Z,100.00
2022-10-01T08:03:12.635Z,100.00
2022-10-01T08:05:43.464Z,100.00
2022-10-01T08:08:10.371Z,100.00
2022-10-01T08:10:41.358Z,100.00
2022-10-01T08:13:17.802Z,100.00
2022-10-01T08:15:54.869Z,100.00
2022-10-01T08:18:22.684Z,100.00
2022-10-01T08:20:49.902Z,100.00
2022-10-01T08:23:22.472Z,100.00
2022-10-01T08:25:49.075Z,100.00
2022-10-01T08:28:18.355Z,100.00
2022-10-01T08:30:45.417Z,100.00
2022-10-01T08:33:13.093Z,100.00
2022-10-01T08:35:40.995Z,100.00
2022-10-01T08:38:07.701Z,100.00
2022-10-01T08:40:39.459Z,100.00
2022-10-01T08:43:14.297Z,100.00
2022-10-01T08:45:45.804Z,100.00
2022-10-01T08:48:18.255Z,100.00
2022-10-01T08:50:53.041Z,100.00
2022-10-01T08:53:34.052Z,100.00
2022-10-01T08:56:04.955Z,100.00
2022-10-01T08:58:41.218Z,100.00
2022-10-01T09:01:11.163Z,100.00
2022-10-01T09:03:39.357Z,100.00
2022-10-01T09:06:19.010Z,100.00
2022-10-01T09:09:31.264Z,100.00
2022-10-01T09:12:39.417Z,100.00
2022-10-01T09:15:21.146Z,100.00
2022-10-01T09:17:59.907Z,100.00
2022-10-01T09:20:39.562Z,100.00
2022-10-01T09:23:06.027Z,100.00
2022-10-01T09:25:35.740Z,100.00
2022-10-01T09:28:15.586Z,100.00
2022-10-01T09:30:51.352Z,100.00
2022-10-01T09:33:22.047Z,100.00
2022-10-01T09:35:50.005Z,100.00
2022-10-01T09:38:42.001Z,100.00
2022-10-01T09:41:16.169Z,100.00
2022-10-01T09:43:48.101Z,100.00
2022-10-01T09:46:18.212Z,100.00
2022-10-01T09:48:59.570Z,100.00
2022-10-01T09:51:56.356Z,100.00
2022-10-01T09:54:28.841Z,100.00
2022-10-01T09:57:06.773Z,100.00
2022-10-01T09:59:44.385Z,100.00
2022-10-01T10:02:24.641Z,100.00
2022-10-01T10:05:18.389Z,100.00
2022-10-01T10:07:47.696Z,100.00
2022-10-01T10:10:25.701Z,100.00
2022-10-01T10:13:07.940Z,100.00
2022-10-01T10:15:34.809Z,100.00
2022-10-01T10:18:13.774Z,100.00
2022-10-01T10:20:43.884Z,100.00
2022-10-01T10:23:19.220Z,100.00
2022-10-01T10:26:03.389Z,100.00
2022-10-01T10:28:44.580Z,100.00
2022-10-01T10:31:15.289Z,100.00
2022-10-01T10:33:55.646Z,100.00
2022-10-01T10:36:28.956Z,100.00
2022-10-01T10:38:59.970Z,100.00
2022-10-01T10:41:29.116Z,100.00
2022-10-01T10:44:08.171Z,100.00
2022-10-01T10:46:39.890Z,99.87
2022-10-01T10:49:15.908Z,97.11
2022-10-01T10:51:54.352Z,99.49
2022-10-01T10:54:24.695Z,98.93
2022-10-01T10:57:02.608Z,98.05
2022-10-01T10:59:32.021Z,97.07
2022-10-01T11:02:05.981Z,98.29
2022-10-01T11:04:42.982Z,97.51
2022-10-01T11:07:18.701Z,97.36
2022-10-01T11:10:02.125Z,97.46
2022-10-01T11:12:40.824Z,95.87
2022-10-01T11:15:26.218Z,95.13
2022-10-01T11:18:12.959Z,94.81
2022-10-01T11:21:00.804Z,95.57
2022-10-01T11:23:48.268Z,95.12
2022-10-01T11:26:34.063Z,94.13
2022-10-01T11:29:12.179Z,94.86
2022-10-01T11:31:59.035Z,98.01
2022-10-01T11:34:49.468Z,100.00
2022-10-01T11:37:18.038Z,100.00
2022-10-01T11:39:48.613Z,100.00
2022-10-01T11:42:22.272Z,100.00
2022-10-01T11:45:03.180Z,100.00
2022-10-01T11:47:43.877Z,100.00
2022-10-01T11:50:28.003Z,100.00
2022-10-01T11:53:02.628Z,100.00
2022-10-01T11:56:00.130Z,100.00
2022-10-01T11:58:50.825Z,100.00
2022-10-01T12:01:47.791Z,100.00
2022-10-01T12:04:25.095Z,100.00
2022-10-01T12:07:16.467Z,100.00
2022-10-01T12:09:55.398Z,100.00
2022-10-01T12:12:30.769Z,100.00
2022-10-01T12:15:11.314Z,100.00
2022-10-01T12:17:52.689Z,100.00
2022-10-01T12:20:43.445Z,100.00
2022-10-01T12:23:18.737Z,100.00
2022-10-01T12:25:49.061Z,100.00
2022-10-01T12:28:25.991Z,100.00
2022-10-01T12:31:08.391Z,100.00
2022-10-01T12:33:56.286Z,100.00
2022-10-01T12:36:43.199Z,100.00
2022-10-01T12:39:21.262Z,100.00
2022-10-01T12:42:05.917Z,100.00
2022-10-01T12:44:40.074Z,100.00
2022-10-01T12:47:42.970Z,100.00
2022-10-01T12:50:11.733Z,100.00
2022-10-01T12:53:05.793Z,100.00
2022-10-01T12:56:09.126Z,100.00
2022-10-01T12:59:09.956Z,100.00
2022-10-01T13:01:45.374Z,100.00
2022-10-01T13:04:26.303Z,100.00
2022-10-01T13:06:55.736Z,100.00
2022-10-01T13:09:34.736Z,100.00
2022-10-01T13:12:36.898Z,100.00
2022-10-01T13:15:08.445Z,100.00
2022-10-01T13:17:55.208Z,100.00
2022-10-01T13:20:34.360Z,100.00
2022-10-01T13:23:26.654Z,100.00
2022-10-01T13:26:17.481Z,100.00
2022-10-01T13:28:57.432Z,100.00
2022-10-01T13:31:41.555Z,100.00
2022-10-01T13:34:46.356Z,100.00
2022-10-01T13:37:16.571Z,100.00
2022-10-01T13:39:48.299Z,100.00
2022-10-01T13:42:27.585Z,100.00
2022-10-01T13:45:00.068Z,100.00
2022-10-01T13:47:28.780Z,100.00
2022-10-01T13:50:06.641Z,100.00
2022-10-01T13:52:34.151Z,100.00
2022-10-01T13:55:02.331Z,100.00
2022-10-01T13:57:42.566Z,100.00
2022-10-01T14:00:11.873Z,100.00
2022-10-01T14:02:45.409Z,100.00
2022-10-01T14:05:18.143Z,100.00
2022-10-01T14:07:50.301Z,100.00
2022-10-01T14:10:19.701Z,100.00
2022-10-01T14:13:08.597Z,100.00
2022-10-01T14:16:03.281Z,100.00
2022-10-01T14:18:38.467Z,100.00
2022-10-01T14:21:29.421Z,100.00
2022-10-01T14:24:05.551Z,100.00
2022-10-01T14:26:43.908Z,100.00
2022-10-01T14:29:51.568Z,100.00
2022-10-01T14:32:48.203Z,100.00
2022-10-01T14:35:20.752Z,100.00
2022-10-01T14:37:47.567Z,100.00
2022-10-01T14:40:22.641Z,100.00
2022-10-01T14:43:10.861Z,100.00
2022-10-01T14:45:37.398Z,100.00
2022-10-01T14:48:05.865Z,100.00
2022-10-01T14:50:34.945Z,100.00
2022-10-01T14:53:01.591Z,100.00
2022-10-01T14:55:29.653Z,100.00
2022-10-01T14:57:58.143Z,100.00
2022-10-01T15:00:30.609Z,100.00
2022-10-01T15:03:08.583Z,100.00
2022-10-01T15:05:39.141Z,100.00
2022-10-01T15:08:11.862Z,100.00
2022-10-01T15:10:50.402Z,100.00
2022-10-01T15:13:39.005Z,100.00
2022-10-01T15:16:11.408Z,100.00
2022-10-01T15:18:41.584Z,100.00
2022-10-01T15:21:17.727Z,100.00
2022-10-01T15:23:44.438Z,100.00
2022-10-01T15:26:16.913Z,100.00
2022-10-01T15:28:44.501Z,100.00
2022-10-01T15:31:14.241Z,100.00
2022-10-01T15:33:41.455Z,100.00
2022-10-01T15:36:14.312Z,100.00
2022-10-01T15:38:46.789Z,100.00
2022-10-01T15:41:39.908Z,100.00
2022-10-01T15:44:08.735Z,100.00
2022-10-01T15:46:37.967Z,100.00
2022-10-01T15:49:24.618Z,100.00
2022-10-01T15:52:21.774Z,100.00
2022-10-01T15:54:58.752Z,100.00
2022-10-01T15:57:33.551Z,100.00
2022-10-01T16:00:02.357Z,100.00
2022-10-01T16:02:31.989Z,100.00
2022-10-01T16:05:09.078Z,100.00
2022-10-01T16:07:36.312Z,100.00
2022-10-01T16:10:31.846Z,100.00
2022-10-01T16:13:01.827Z,100.00
2022-10-01T16:15:31.465Z,100.00
2022-10-01T16:18:05.018Z,100.00
2022-10-01T16:20:31.478Z,100.00
2022-10-01T16:23:37.073Z,100.00
2022-10-01T16:26:29.378Z,100.00
2022-10-01T16:28:57.595Z,100.00
2022-10-01T16:31:25.785Z,100.00
2022-10-01T16:33:54.842Z,100.00
2022-10-01T16:36:24.317Z,100.00
2022-10-01T16:38:51.733Z,100.00
2022-10-01T16:41:23.138Z,100.00
2022-10-01T16:43:54.305Z,100.00
2022-10-01T16:46:21.258Z,100.00
2022-10-01T16:48:52.508Z,100.00
2022-10-01T16:51:19.696Z,100.00
2022-10-01T16:53:47.120Z,100.00
2022-10-01T16:56:14.287Z,100.00
2022-10-01T16:58:48.900Z,100.00
2022-10-01T17:01:18.351Z,100.00
2022-10-01T17:03:47.201Z,100.00
2022-10-01T17:06:13.750Z,100.00
2022-10-01T17:08:40.315Z,100.00
2022-10-01T17:11:12.784Z,100.00
2022-10-01T17:13:42.270Z,100.00
2022-10-01T17:16:09.126Z,100.00
2022-10-01T17:18:39.442Z,100.00
2022-10-01T17:21:09.227Z,100.00
2022-10-01T17:23:36.577Z,100.00
2022-10-01T17:26:06.574Z,100.00
2022-10-01T17:28:36.197Z,100.00
2022-10-01T17:31:08.698Z,100.00
2022-10-01T17:33:35.805Z,100.00
2022-10-01T17:36:07.032Z,100.00
2022-10-01T17:38:35.958Z,100.00
2022-10-01T17:41:02.803Z,100.00
2022-10-01T17:43:31.897Z,100.00
2022-10-01T17:46:00.690Z,100.00
2022-10-01T17:48:30.590Z,100.00
2022-10-01T17:51:08.791Z,100.00
2022-10-01T17:53:42.080Z,100.00
2022-10-01T17:56:17.592Z,100.00
2022-10-01T17:58:46.266Z,100.00
2022-10-01T18:01:20.218Z,100.00
2022-10-01T18:03:47.367Z,100.00
2022-10-01T18:06:18.520Z,100.00
2022-10-01T18:08:55.051Z,100.00
2022-10-01T18:11:24.291Z,100.00
2022-10-01T18:13:51.406Z,100.00
2022-10-01T18:16:19.358Z,100.00
2022-10-01T18:19:51.883Z,100.00
2022-10-01T18:21:35.514Z,100.00
2022-10-01T18:24:04.776Z,100.00
2022-10-01T18:26:32.481Z,100.00
2022-10-01T18:28:59.639Z,100.00
2022-10-01T18:31:29.013Z,100.00
2022-10-01T18:34:03.683Z,100.00
2022-10-01T18:36:58.792Z,100.00
2022-10-01T18:39:36.833Z,100.00
2022-10-01T18:42:15.046Z,100.00
2022-10-01T18:44:41.629Z,100.00
2022-10-01T18:47:23.032Z,100.00
2022-10-01T18:50:39.116Z,100.00
2022-10-01T18:53:18.870Z,100.00
2022-10-01T18:56:05.807Z,100.00
2022-10-01T18:58:38.338Z,100.00
2022-10-01T19:01:23.969Z,100.00
2022-10-01T19:04:17.021Z,100.00
2022-10-01T19:06:43.532Z,100.00
2022-10-01T19:09:16.268Z,100.00
2022-10-01T19:12:20.311Z,100.00
2022-10-01T19:14:56.023Z,100.00
2022-10-01T19:17:50.359Z,100.00
2022-10-01T19:20:35.326Z,100.00
2022-10-01T19:23:24.943Z,100.00
2022-10-01T19:26:01.793Z,100.00
2022-10-01T19:29:09.957Z,100.00
2022-10-01T19:31:36.507Z,100.00
2022-10-01T19:34:12.984Z,100.00
2022-10-01T19:36:50.845Z,100.00
2022-10-01T19:39:24.150Z,100.00
2022-10-01T19:42:02.483Z,100.00
2022-10-01T19:44:44.801Z,100.00
2022-10-01T19:47:30.746Z,100.00
2022-10-01T19:50:02.416Z,100.00
2022-10-01T19:52:38.628Z,100.00
2022-10-01T19:55:14.678Z,100.00
2022-10-01T19:57:43.792Z,100.00
2022-10-01T20:00:19.563Z,100.00
2022-10-01T20:02:54.645Z,100.00
2022-10-01T20:05:34.558Z,100.00
2022-10-01T20:08:28.957Z,100.00
2022-10-01T20:11:01.601Z,100.00
2022-10-01T20:13:37.932Z,100.00
2022-10-01T20:16:04.558Z,100.00
2022-10-01T20:18:52.491Z,100.00
2022-10-01T20:21:50.599Z,100.00
2022-10-01T20:24:48.230Z,100.00
2022-10-01T20:27:28.022Z,100.00
2022-10-01T20:30:05.631Z,100.00
2022-10-01T20:32:51.052Z,100.00
2022-10-01T20:35:32.789Z,100.00
2022-10-01T20:38:20.783Z,100.00
2022-10-01T20:40:52.419Z,100.00
2022-10-01T20:43:46.040Z,100.00
2022-10-01T20:46:19.614Z,100.00
2022-10-01T20:48:53.844Z,100.00
2022-10-01T20:51:46.164Z,100.00
2022-10-01T20:54:23.098Z,100.00
2022-10-01T20:57:06.588Z,100.00
2022-10-01T20:59:45.626Z,100.00
2022-10-01T21:02:45.060Z,100.00
2022-10-01T21:05:26.083Z,100.00
2022-10-01T21:08:07.263Z,100.00
2022-10-01T21:10:36.195Z,100.00
2022-10-01T21:13:12.583Z,100.00
2022-10-01T21:15:55.447Z,100.00
2022-10-01T21:18:28.424Z,100.00
2022-10-01T21:21:35.604Z,100.00
2022-10-01T21:24:22.758Z,100.00
2022-10-01T21:27:09.937Z,100.00
2022-10-01T21:30:00.926Z,100.00
2022-10-01T21:32:33.545Z,100.00
2022-10-01T21:35:22.046Z,100.00
2022-10-01T21:38:04.214Z,100.00
2022-10-01T21:40:52.431Z,100.00
2022-10-01T21:43:34.214Z,100.00
2022-10-01T21:46:36.789Z,100.00
2022-10-01T21:49:17.009Z,100.00
2022-10-01T21:51:45.540Z,100.00
2022-10-01T21:54:25.151Z,100.00
2022-10-01T21:57:20.747Z,100.00
2022-10-01T22:00:13.291Z,100.00
2022-10-01T22:02:48.073Z,100.00
2022-10-01T22:05:35.869Z,100.00
2022-10-01T22:08:32.995Z,100.00
2022-10-01T22:11:07.178Z,100.00
2022-10-01T22:13:49.206Z,100.00
2022-10-01T22:16:19.350Z,100.00
2022-10-01T22:18:49.185Z,100.00
2022-10-01T22:21:51.051Z,100.00
2022-10-01T22:24:41.245Z,100.00
2022-10-01T22:27:14.119Z,100.00
2022-10-01T22:29:47.261Z,100.00
2022-10-01T22:32:17.727Z,100.00
2022-10-01T22:34:49.320Z,100.00
2022-10-01T22:37:26.359Z,100.00
2022-10-01T22:40:07.719Z,100.00
2022-10-01T22:42:41.208Z,100.00
2022-10-01T22:45:16.902Z,100.00
2022-10-01T22:48:08.493Z,100.00
2022-10-01T22:50:47.431Z,100.00
2022-10-01T22:53:33.704Z,100.00
2022-10-01T22:56:05.270Z,100.00
2022-10-01T22:58:46.945Z,100.00
2022-10-01T23:01:30.465Z,100.00
2022-10-01T23:04:09.879Z,100.00
2022-10-01T23:06:46.774Z,100.00
2022-10-01T23:09:44.145Z,100.00
2022-10-01T23:12:32.167Z,100.00
2022-10-01T23:15:32.973Z,100.00
2022-10-01T23:18:26.053Z,100.00
2022-10-01T23:21:33.040Z,100.00
2022-10-01T23:24:06.929Z,100.00
2022-10-01T23:26:38.905Z,100.00
2022-10-01T23:29:10.487Z,100.00
2022-10-01T23:32:19.157Z,100.00
2022-10-01T23:35:20.972Z,100.00
2022-10-01T23:38:03.294Z,100.00
2022-10-01T23:40:40.235Z,100.00
2022-10-01T23:43:17.776Z,100.00
2022-10-01T23:46:15.119Z,100.00
2022-10-01T23:48:52.272Z,100.00
2022-10-01T23:51:27.072Z,100.00
2022-10-01T23:54:02.997Z,100.00
2022-10-01T23:56:50.137Z,100.00
2022-10-01T23:59:36.472Z,100.00
